createdAt,value
2022-10-18T00:04:24.467Z,94.13
2022-10-18T00:09:26.480Z,94.58
2022-10-18T00:14:29.921Z,94.37
2022-10-18T00:19:31.994Z,93.94
2022-10-18T00:24:33.891Z,93.99
2022-10-18T00:29:37.520Z,94.02
2022-10-18T00:34:40.095Z,93.94
2022-10-18T00:39:42.217Z,93.73
2022-10-18T00:45:14.796Z,93.94
2022-10-18T00:50:17.389Z,94.36
2022-10-18T00:55:20.032Z,94.61
2022-10-18T01:00:23.625Z,94.75
2022-10-18T01:05:26.526Z,94.64
2022-10-18T01:10:37.873Z,94.89
2022-10-18T01:15:54.648Z,95.42
2022-10-18T01:21:10.587Z,95.19
2022-10-18T01:26:26.765Z,95.38
2022-10-18T01:31:35.080Z,95.49
2022-10-18T01:36:41.435Z,95.83
2022-10-18T01:41:45.741Z,95.86
2022-10-18T01:46:51.429Z,96.51
2022-10-18T01:51:53.776Z,97.18
2022-10-18T01:57:00.555Z,95.93
2022-10-18T02:02:15.840Z,95.45
2022-10-18T02:07:26.993Z,95.05
2022-10-18T02:12:32.568Z,95.19
2022-10-18T02:17:37.283Z,95.43
2022-10-18T02:22:40.030Z,95.82
2022-10-18T02:27:42.968Z,96.56
2022-10-18T02:32:49.771Z,96.64
2022-10-18T02:37:54.001Z,95.77
2022-10-18T02:42:58.123Z,95.67
2022-10-18T02:48:01.801Z,94.95
2022-10-18T02:53:03.749Z,95.59
2022-10-18T02:58:05.811Z,96.26
2022-10-18T03:03:09.318Z,95.77
2022-10-18T03:08:10.968Z,95.15
2022-10-18T03:13:13.132Z,94.68
2022-10-18T03:18:16.750Z,95.63
2022-10-18T03:23:18.781Z,96.00
2022-10-18T03:28:21.279Z,95.40
2022-10-18T03:33:24.739Z,95.55
2022-10-18T03:38:27.139Z,95.61
2022-10-18T03:43:28.923Z,96.48
2022-10-18T03:48:32.003Z,96.69
2022-10-18T03:53:34.306Z,97.09
2022-10-18T03:58:36.244Z,97.38
2022-10-18T04:03:39.276Z,97.68
2022-10-18T04:08:41.061Z,98.12
2022-10-18T04:13:43.078Z,98.42
2022-10-18T04:18:46.635Z,98.55
2022-10-18T04:23:48.849Z,98.68
2022-10-18T04:28:51.031Z,98.97
2022-10-18T04:33:54.993Z,99.41
2022-10-18T04:38:57.273Z,99.42
2022-10-18T04:43:58.931Z,99.19
2022-10-18T04:49:02.293Z,99.78
2022-10-18T04:54:04.388Z,99.65
2022-10-18T04:59:06.354Z,99.38
2022-10-18T05:04:09.600Z,100.00
2022-10-18T05:09:11.827Z,100.00
2022-10-18T05:14:13.943Z,100.00
2022-10-18T05:19:17.505Z,100.00
2022-10-18T05:24:21.054Z,100.00
2022-10-18T05:29:25.644Z,100.00
2022-10-18T05:34:28.798Z,100.00
2022-10-18T05:39:30.891Z,100.00
2022-10-18T05:44:33.092Z,100.00
2022-10-18T05:49:36.187Z,100.00
2022-10-18T05:54:38.546Z,100.00
2022-10-18T05:59:40.531Z,100.00
2022-10-18T06:04:43.530Z,100.00
2022-10-18T06:09:45.178Z,100.00
2022-10-18T06:14:47.026Z,100.00
2022-10-18T06:19:50.454Z,100.00
2022-10-18T06:24:57.124Z,100.00
2022-10-18T06:29:59.453Z,100.00
2022-10-18T06:35:02.941Z,100.00
2022-10-18T06:40:06.524Z,100.00
2022-10-18T06:45:09.733Z,100.00
2022-10-18T06:50:13.037Z,100.00
2022-10-18T06:55:15.409Z,100.00
2022-10-18T07:00:17.338Z,100.00
2022-10-18T07:05:20.821Z,100.00
2022-10-18T07:10:23.002Z,100.00
2022-10-18T07:15:24.856Z,100.00
2022-10-18T07:20:27.941Z,100.00
2022-10-18T07:25:31.074Z,100.00
2022-10-18T07:30:33.749Z,100.00
2022-10-18T07:35:37.134Z,100.00
2022-10-18T07:40:39.880Z,100.00
2022-10-18T07:45:42.222Z,100.00
2022-10-18T07:50:45.728Z,100.00
2022-10-18T07:55:48.149Z,100.00
2022-10-18T08:00:50.161Z,100.00
2022-10-18T08:05:54.846Z,100.00
2022-10-18T08:11:02.388Z,100.00
2022-10-18T08:16:06.424Z,100.00
2022-10-18T08:21:11.875Z,100.00
2022-10-18T08:26:16.737Z,100.00
2022-10-18T08:31:19.226Z,100.00
2022-10-18T08:36:22.584Z,100.00
2022-10-18T08:41:43.046Z,100.00
2022-10-18T08:46:47.365Z,100.00
2022-10-18T08:51:52.037Z,100.00
2022-10-18T08:56:59.641Z,100.00
2022-10-18T09:02:15.746Z,100.00
2022-10-18T09:07:33.336Z,100.00
2022-10-18T09:12:52.835Z,100.00
2022-10-18T09:18:08.784Z,100.00
2022-10-18T09:23:20.546Z,100.00
2022-10-18T09:28:41.337Z,100.00
2022-10-18T09:33:51.048Z,100.00
2022-10-18T09:39:00.542Z,100.00
2022-10-18T09:44:11.037Z,100.00
2022-10-18T09:49:19.045Z,100.00
2022-10-18T09:54:29.586Z,100.00
2022-10-18T09:59:40.500Z,100.00
2022-10-18T10:04:43.153Z,100.00
2022-10-18T10:09:48.689Z,100.00
2022-10-18T10:14:50.665Z,100.00
2022-10-18T10:19:59.898Z,100.00
2022-10-18T10:25:04.082Z,100.00
2022-10-18T10:30:22.649Z,100.00
2022-10-18T10:35:41.570Z,100.00
2022-10-18T10:40:54.254Z,100.00
2022-10-18T10:45:59.930Z,100.00
2022-10-18T10:51:06.033Z,100.00
2022-10-18T10:56:18.419Z,100.00
2022-10-18T11:01:38.126Z,100.00
2022-10-18T11:06:47.483Z,100.00
2022-10-18T11:12:01.203Z,100.00
2022-10-18T11:17:14.994Z,100.00
2022-10-18T11:22:22.822Z,100.00
2022-10-18T11:27:31.573Z,100.00
2022-10-18T11:32:41.897Z,99.95
2022-10-18T11:37:58.479Z,98.75
2022-10-18T11:43:11.116Z,98.85
2022-10-18T11:48:32.522Z,99.92
2022-10-18T11:53:46.172Z,99.04
2022-10-18T11:59:19.081Z,98.62
2022-10-18T12:04:26.104Z,97.41
2022-10-18T12:09:32.742Z,97.67
2022-10-18T12:14:40.523Z,97.14
2022-10-18T12:19:43.480Z,97.36
2022-10-18T12:24:45.180Z,98.77
2022-10-18T12:29:54.798Z,97.23
2022-10-18T12:35:00.505Z,98.16
2022-10-18T12:40:11.119Z,97.95
2022-10-18T12:45:25.403Z,97.93
2022-10-18T12:50:31.903Z,97.38
2022-10-18T12:55:36.116Z,98.09
2022-10-18T13:01:09.553Z,98.33
2022-10-18T13:06:11.658Z,97.34
2022-10-18T13:11:37.906Z,97.94
2022-10-18T13:16:48.648Z,98.18
2022-10-18T13:22:06.760Z,97.52
2022-10-18T13:27:42.374Z,97.87
2022-10-18T13:32:53.766Z,96.53
2022-10-18T13:37:59.910Z,94.78
2022-10-18T13:43:52.735Z,93.53
2022-10-18T13:49:00.636Z,90.13
2022-10-18T13:54:13.967Z,91.61
2022-10-18T13:59:37.827Z,93.80
2022-10-18T14:05:23.698Z,93.34
2022-10-18T14:10:44.147Z,89.45
2022-10-18T14:16:01.886Z,87.19
2022-10-18T14:21:14.198Z,87.83
2022-10-18T14:26:20.257Z,88.05
2022-10-18T14:31:22.038Z,88.42
2022-10-18T14:36:26.946Z,88.80
2022-10-18T14:41:30.291Z,90.44
2022-10-18T14:46:32.291Z,89.49
2022-10-18T14:51:36.963Z,90.57
2022-10-18T14:56:41.456Z,91.78
2022-10-18T15:01:53.793Z,93.06
2022-10-18T15:06:57.650Z,93.69
2022-10-18T15:12:01.209Z,93.19
2022-10-18T15:17:08.121Z,93.30
2022-10-18T15:22:31.789Z,93.49
2022-10-18T15:27:37.570Z,93.71
2022-10-18T15:32:48.121Z,93.73
2022-10-18T15:37:52.419Z,94.51
2022-10-18T15:42:56.549Z,95.34
2022-10-18T15:48:01.456Z,96.61
2022-10-18T15:53:23.951Z,97.65
2022-10-18T15:58:27.306Z,98.18
2022-10-18T16:03:29.046Z,98.85
2022-10-18T16:08:32.414Z,98.82
2022-10-18T16:13:34.382Z,100.00
2022-10-18T16:18:36.116Z,100.00
2022-10-18T16:23:39.316Z,100.00
2022-10-18T16:28:42.315Z,100.00
2022-10-18T16:33:44.343Z,100.00
2022-10-18T16:38:48.906Z,100.00
2022-10-18T16:43:51.574Z,100.00
2022-10-18T16:48:54.656Z,100.00
2022-10-18T16:53:58.047Z,100.00
2022-10-18T16:59:01.046Z,100.00
2022-10-18T17:04:03.072Z,100.00
2022-10-18T17:09:06.485Z,100.00
2022-10-18T17:14:09.009Z,100.00
2022-10-18T17:19:11.710Z,100.00
2022-10-18T17:24:14.893Z,100.00
2022-10-18T17:29:16.747Z,100.00
2022-10-18T17:34:21.228Z,100.00
2022-10-18T17:39:24.842Z,100.00
2022-10-18T17:44:27.221Z,100.00
2022-10-18T17:49:29.423Z,100.00
2022-10-18T17:54:44.763Z,100.00
2022-10-18T17:59:49.621Z,100.00
2022-10-18T18:04:54.462Z,100.00
2022-10-18T18:09:58.504Z,100.00
2022-10-18T18:15:00.773Z,100.00
2022-10-18T18:20:02.965Z,100.00
2022-10-18T18:25:07.352Z,100.00
2022-10-18T18:30:10.035Z,100.00
2022-10-18T18:35:12.079Z,100.00
2022-10-18T18:40:15.952Z,100.00
2022-10-18T18:45:18.061Z,100.00
2022-10-18T18:50:20.357Z,100.00
2022-10-18T18:55:24.298Z,100.00
2022-10-18T19:00:26.461Z,100.00
2022-10-18T19:05:28.842Z,100.00
2022-10-18T19:10:32.799Z,100.00
2022-10-18T19:15:35.229Z,100.00
2022-10-18T19:20:36.986Z,100.00
2022-10-18T19:25:40.091Z,100.00
2022-10-18T19:30:41.768Z,100.00
2022-10-18T19:35:43.400Z,100.00
2022-10-18T19:40:51.564Z,100.00
2022-10-18T19:45:55.570Z,100.00
2022-10-18T19:51:03.021Z,100.00
2022-10-18T19:56:09.734Z,100.00
2022-10-18T20:01:11.678Z,100.00
2022-10-18T20:06:14.396Z,100.00
2022-10-18T20:11:19.364Z,100.00
2022-10-18T20:16:27.878Z,100.00
2022-10-18T20:21:31.872Z,100.00
2022-10-18T20:26:35.007Z,100.00
2022-10-18T20:31:36.735Z,100.00
2022-10-18T20:36:39.208Z,100.00
2022-10-18T20:41:42.592Z,100.00
2022-10-18T20:46:44.849Z,100.00
2022-10-18T20:51:46.526Z,100.00
2022-10-18T20:56:49.830Z,100.00
2022-10-18T21:01:51.952Z,100.00
2022-10-18T21:06:54.056Z,100.00
2022-10-18T21:11:57.832Z,100.00
2022-10-18T21:16:59.944Z,100.00
2022-10-18T21:22:01.939Z,100.00
2022-10-18T21:27:05.138Z,100.00
2022-10-18T21:32:07.367Z,100.00
2022-10-18T21:37:09.361Z,100.00
2022-10-18T21:42:12.886Z,100.00
2022-10-18T21:47:14.990Z,100.00
2022-10-18T21:52:17.193Z,100.00
2022-10-18T21:57:20.631Z,100.00
2022-10-18T22:02:22.711Z,100.00
2022-10-18T22:07:24.845Z,100.00
2022-10-18T22:12:27.955Z,100.00
2022-10-18T22:17:30.364Z,100.00
2022-10-18T22:22:32.588Z,100.00
2022-10-18T22:27:36.330Z,100.00
2022-10-18T22:32:38.657Z,100.00
2022-10-18T22:37:40.745Z,100.00
2022-10-18T22:42:44.126Z,100.00
2022-10-18T22:47:46.176Z,100.00
2022-10-18T22:52:49.697Z,100.00
2022-10-18T22:57:56.664Z,100.00
2022-10-18T23:02:58.419Z,100.00
2022-10-18T23:08:00.574Z,100.00
2022-10-18T23:13:04.326Z,100.00
2022-10-18T23:18:06.970Z,100.00
2022-10-18T23:23:08.706Z,100.00
2022-10-18T23:28:12.155Z,100.00
2022-10-18T23:33:14.008Z,100.00
2022-10-18T23:38:16.202Z,100.00
2022-10-18T23:43:19.592Z,100.00
2022-10-18T23:48:21.580Z,100.00
2022-10-18T23:53:23.828Z,100.00
2022-10-18T23:58:28.521Z,100.00
